^^
Grace C. Lehan Memorial Weather Station Historical Data
Daily Summary for June 15, 2021 Units:  English    Metric   Both
Daily Weekly Monthly Yearly
  High: Low: Average:
Temperature: 83.1 °F 64 °F 72.5 °F
Dew Point: 66.9 °F 59.2 °F 63.1 °F
Humidity: 96% 48.5% 74%
Wind Speed: 7.5mph 0mph 0.7mph
Wind Gust: 19mph - -
Wind- - West
Pressure: 29.75 in 29.65 in -
Precipitation: 0.00 in    
 
 
Tabular Data for June 15, 2021
Time Temperature Dew Point Pressure Wind Wind Speed Wind Gust Humidity Rainfall Rate (Hourly) solar
00:09 64.9 °F 63.4 °F 29.75 in Calm     95% 0.00 in 0 W/m2
00:14 64.8 °F 63.3 °F 29.75 in Calm     95% 0.00 in 0 W/m2
00:19 64.7 °F 63.3 °F 29.75 in Calm     95% 0.00 in 0 W/m2
00:24 64.7 °F 63.2 °F 29.74 in Calm     95% 0.00 in 0 W/m2
00:25 64.7 °F 63.2 °F 29.74 in Calm     95% 0.00 in 0 W/m2
01:00 64.8 °F 63.3 °F 29.75 in Calm     95% 0.00 in 0 W/m2
01:30 64.9 °F 63.7 °F 29.73 in Calm     96% 0.00 in 0 W/m2
02:00 64.9 °F 63.7 °F 29.74 in Calm     96% 0.00 in 0 W/m2
02:30 64.6 °F 63.1 °F 29.74 in Calm     95% 0.00 in 0 W/m2
03:00 64.7 °F 63.5 °F 29.72 in Calm     96% 0.00 in 0 W/m2
03:30 64.7 °F 63.5 °F 29.72 in Calm     96% 0.00 in 0 W/m2
04:04 64.7 °F 63.5 °F 29.73 in Calm     96% 0.00 in 0 W/m2
04:09 64.7 °F 63.5 °F 29.73 in Calm     96% 0.00 in 0 W/m2
04:14 64.7 °F 63.6 °F 29.73 in Calm     96% 0.00 in 0 W/m2
04:19 64.7 °F 63.6 °F 29.73 in Calm     96% 0.00 in 0 W/m2
04:24 64.7 °F 63.5 °F 29.73 in Calm     96% 0.00 in 0 W/m2
04:29 64.7 °F 63.5 °F 29.73 in Calm     96% 0.00 in 0 W/m2
04:34 64.6 °F 63.4 °F 29.73 in Calm     96% 0.00 in 0 W/m2
04:39 64.4 °F 63.2 °F 29.73 in Calm     96% 0.00 in 0 W/m2
04:44 64.2 °F 62.9 °F 29.72 in Calm     95.6% 0.00 in 0 W/m2
04:49 64.1 °F 62.6 °F 29.72 in Calm     95% 0.00 in 0 W/m2
04:54 64.1 °F 62.6 °F 29.72 in Calm     95% 0.00 in 0 W/m2
04:59 64.1 °F 62.9 °F 29.72 in Calm     95.8% 0.00 in 0 W/m2
05:04 64.1 °F 62.9 °F 29.71 in Calm     96% 0.00 in 0 W/m2
05:09 64.1 °F 62.9 °F 29.71 in Calm     96% 0.00 in 0 W/m2
05:14 64.1 °F 62.9 °F 29.72 in Calm     96% 0.00 in 0 W/m2
05:19 64 °F 62.9 °F 29.72 in Calm     96% 0.00 in 0 W/m2
05:24 64 °F 62.8 °F 29.72 in Calm     96% 0.00 in 0 W/m2
05:29 64 °F 62.9 °F 29.73 in Calm     96% 0.00 in 0 W/m2
05:34 64.1 °F 62.9 °F 29.73 in Calm     96% 0.00 in 0 W/m2
05:39 64.1 °F 62.9 °F 29.73 in Calm     96% 0.00 in 0 W/m2
05:44 64.2 °F 63 °F 29.73 in Calm     96% 0.00 in 7 W/m2
05:49 64.2 °F 63 °F 29.73 in Calm     96% 0.00 in 7 W/m2
05:54 64.3 °F 63.1 °F 29.73 in Calm     96% 0.00 in 9 W/m2
05:58 64.3 °F 63.1 °F 29.73 in Calm     96% 0.00 in 9 W/m2
06:00 64.3 °F 63.1 °F 29.73 in Calm     96% 0.00 in 4 W/m2
06:30 64.4 °F 63.2 °F 29.72 in Calm     96% 0.00 in 18 W/m2
07:00 64.4 °F 63.2 °F 29.72 in Calm   1 mph 96% 0.00 in 23 W/m2
07:30 64.9 °F 63.7 °F 29.72 in Calm     96% 0.00 in 35 W/m2
08:04 65.9 °F 64.7 °F 29.71 in Calm     96% 0.00 in 225 W/m2
08:09 65.9 °F 64.8 °F 29.72 in West 1.9 mph 6 mph 96% 0.00 in 267 W/m2
08:14 65.9 °F 64.6 °F 29.72 in West 0.5 mph 6 mph 95.5% 0.00 in 214 W/m2
08:19 66.1 °F 64.5 °F 29.72 in West 0.9 mph 6 mph 94.6% 0.00 in 109 W/m2
08:24 66.2 °F 64.1 °F 29.72 in Calm   6 mph 93.2% 0.00 in 120 W/m2
08:29 66.6 °F 64.5 °F 29.72 in Calm   6 mph 93% 0.00 in 183 W/m2
08:34 66.9 °F 64.6 °F 29.71 in Calm   6 mph 92.4% 0.00 in 221 W/m2
08:39 67.2 °F 64.8 °F 29.71 in Calm     91.9% 0.00 in 248 W/m2
08:44 67.5 °F 64.6 °F 29.71 in WNW 0.4 mph 4 mph 90.4% 0.00 in 214 W/m2
08:49 67.7 °F 64.2 °F 29.71 in Calm   4 mph 88.4% 0.00 in 128 W/m2
08:54 67.8 °F 63.8 °F 29.71 in Calm   4 mph 87% 0.00 in 162 W/m2
08:59 67.9 °F 63.7 °F 29.71 in Calm   4 mph 86.5% 0.00 in 179 W/m2
09:04 68.1 °F 64 °F 29.71 in Calm   4 mph 86.8% 0.00 in 179 W/m2
09:09 68.4 °F 64.2 °F 29.71 in Calm   1 mph 86.4% 0.00 in 336 W/m2
09:14 68.8 °F 64.4 °F 29.71 in Calm   1 mph 85.8% 0.00 in 294 W/m2
09:19 69.1 °F 64.1 °F 29.71 in WNW 0.3 mph 2 mph 84.1% 0.00 in 265 W/m2
09:24 69.5 °F 64.7 °F 29.71 in WNW 0.2 mph 2 mph 84.5% 0.00 in 615 W/m2
09:29 70.2 °F 65.3 °F 29.71 in Calm   2 mph 84.5% 0.00 in 615 W/m2
09:34 70.8 °F 65.4 °F 29.71 in Calm   2 mph 82.8% 0.00 in 383 W/m2
09:39 71.4 °F 65.7 °F 29.71 in WNW 1.8 mph 7 mph 82.2% 0.00 in 357 W/m2
09:44 71.6 °F 65.6 °F 29.71 in WNW 0.5 mph 7 mph 81.3% 0.00 in 306 W/m2
09:49 71.8 °F 65.7 °F 29.71 in Calm   7 mph 81.2% 0.00 in 258 W/m2
09:54 72.2 °F 66.2 °F 29.71 in Calm   7 mph 81.3% 0.00 in 359 W/m2
09:59 72.7 °F 66.7 °F 29.71 in Calm   7 mph 81.3% 0.00 in 290 W/m2
10:04 73 °F 66 °F 29.71 in WNW 0.7 mph 7 mph 78.8% 0.00 in 218 W/m2
10:09 73 °F 65.9 °F 29.71 in WNW 0.1 mph 4 mph 78.3% 0.00 in 926 W/m2
10:14 73.4 °F 66.8 °F 29.71 in WNW 0.4 mph 4 mph 79.9% 0.00 in 972 W/m2
10:19 73.8 °F 66.1 °F 29.71 in WNW 1.5 mph 6 mph 76.9% 0.00 in 274 W/m2
10:24 73.8 °F 65.4 °F 29.71 in WNW 0.6 mph 6 mph 75.2% 0.00 in 348 W/m2
10:29 73.7 °F 65.7 °F 29.71 in WNW 1.1 mph 6 mph 76% 0.00 in 411 W/m2
10:34 73.6 °F 65.5 °F 29.71 in WNW 0.1 mph 6 mph 75.7% 0.00 in 578 W/m2
10:39 73.7 °F 65.8 °F 29.71 in Calm   2 mph 76.5% 0.00 in 578 W/m2
10:44 73.9 °F 66.1 °F 29.71 in WNW 0.3 mph 3 mph 76.7% 0.00 in 425 W/m2
10:49 74.1 °F 66.2 °F 29.71 in WNW 0.6 mph 4 mph 76.4% 0.00 in 499 W/m2
10:54 74.2 °F 66.2 °F 29.71 in WNW 0.1 mph 4 mph 76% 0.00 in 638 W/m2
10:59 74.3 °F 65.8 °F 29.71 in Calm   4 mph 74.9% 0.00 in 357 W/m2
11:04 74.4 °F 66.8 °F 29.71 in WNW 0.1 mph 4 mph 77.3% 0.00 in 874 W/m2
11:09 74.6 °F 66.6 °F 29.71 in WNW 0.3 mph 3 mph 76.2% 0.00 in 1034 W/m2
11:14 75 °F 66.9 °F 29.71 in WNW 0.1 mph 3 mph 76.1% 0.00 in 1034 W/m2
11:19 75.2 °F 65.6 °F 29.71 in Calm   3 mph 72.2% 0.00 in 1092 W/m2
11:24 75.3 °F 66.3 °F 29.70 in WNW 1.4 mph 6 mph 73.6% 0.00 in 1034 W/m2
11:29 75.6 °F 65.9 °F 29.70 in WNW 0.1 mph 6 mph 72% 0.00 in 673 W/m2
11:34 75.6 °F 65.9 °F 29.70 in Calm   6 mph 71.8% 0.00 in 673 W/m2
11:39 75.5 °F 65.5 °F 29.70 in WNW 0.1 mph 2 mph 71% 0.00 in 274 W/m2
11:44 75.4 °F 65.7 °F 29.70 in WNW 0.5 mph 5 mph 71.9% 0.00 in 274 W/m2
11:49 75.4 °F 65.2 °F 29.70 in WNW 0.2 mph 5 mph 70.8% 0.00 in 1046 W/m2
11:54 75.5 °F 65.9 °F 29.71 in Calm   5 mph 72.2% 0.00 in 1171 W/m2
11:59 75.9 °F 66.4 °F 29.71 in Calm   5 mph 72.3% 0.00 in 666 W/m2
12:04 76.5 °F 65.2 °F 29.70 in Calm     68% 0.00 in 454 W/m2
12:09 76.7 °F 65.8 °F 29.70 in WNW 0.1 mph 2 mph 69.1% 0.00 in 1102 W/m2
12:14 76.9 °F 63.8 °F 29.70 in Calm   2 mph 64% 0.00 in 1125 W/m2
12:19 77 °F 64 °F 29.70 in WNW 0.1 mph 2 mph 64.4% 0.00 in 1032 W/m2
12:24 77.3 °F 64.3 °F 29.70 in WNW 1.1 mph 4 mph 64.3% 0.00 in 1055 W/m2
12:29 77.8 °F 64.2 °F 29.70 in WNW 0.1 mph 4 mph 63% 0.00 in 1055 W/m2
12:34 78 °F 64.3 °F 29.70 in Calm   4 mph 62.7% 0.00 in 585 W/m2
12:39 78.1 °F 64.3 °F 29.70 in Calm     62.6% 0.00 in 1062 W/m2
12:44 78.3 °F 64.1 °F 29.70 in WNW 0.8 mph 5 mph 61.8% 0.00 in 1025 W/m2
12:49 78.5 °F 64.3 °F 29.70 in Calm   5 mph 61.8% 0.00 in 1007 W/m2
12:54 78.7 °F 63.9 °F 29.70 in Calm   5 mph 60.6% 0.00 in 1063 W/m2
12:59 78.6 °F 63.4 °F 29.69 in Calm   5 mph 59.6% 0.00 in 1065 W/m2
13:04 78.4 °F 64.2 °F 29.69 in Calm   5 mph 61.9% 0.00 in 1065 W/m2
13:09 78.5 °F 65.4 °F 29.69 in WNW 0.6 mph 5 mph 64% 0.00 in 998 W/m2
13:14 78.7 °F 64.5 °F 29.69 in West 0.8 mph 7 mph 61.7% 0.00 in 197 W/m2
13:19 78.5 °F 64.1 °F 29.69 in Calm   7 mph 61.4% 0.00 in 1146 W/m2
13:24 78.5 °F 64.8 °F 29.69 in Calm   7 mph 62.9% 0.00 in 1146 W/m2
13:29 79 °F 65.9 °F 29.68 in Calm   7 mph 64.2% 0.00 in 1100 W/m2
13:34 79.6 °F 65.6 °F 29.69 in SW 1.1 mph 7 mph 62.3% 0.00 in 1099 W/m2
13:39 80 °F 65.2 °F 29.68 in WSW 0.4 mph 6 mph 60.7% 0.00 in 1099 W/m2
13:44 80.4 °F 65.9 °F 29.68 in Calm   6 mph 61.4% 0.00 in 1062 W/m2
13:49 80.6 °F 65.4 °F 29.68 in WSW 0.2 mph 6 mph 59.8% 0.00 in 225 W/m2
13:54 80.5 °F 65 °F 29.68 in Calm   6 mph 59.2% 0.00 in 188 W/m2
13:59 80.1 °F 64.6 °F 29.68 in WSW 0.1 mph 6 mph 59.3% 0.00 in 1130 W/m2
14:04 79.9 °F 64.8 °F 29.68 in WSW 0.2 mph 6 mph 60.1% 0.00 in 1130 W/m2
14:09 79.8 °F 64.3 °F 29.68 in WSW 0.2 mph 5 mph 59.1% 0.00 in 216 W/m2
14:14 79.8 °F 65.1 °F 29.67 in WSW 0.3 mph 5 mph 60.9% 0.00 in 1162 W/m2
14:19 80 °F 64.3 °F 29.67 in Calm   5 mph 58.9% 0.00 in 250 W/m2
14:24 79.9 °F 63.7 °F 29.67 in Calm   5 mph 57.7% 0.00 in 1049 W/m2
14:29 79.7 °F 64.2 °F 29.67 in WSW 0.2 mph 5 mph 59.3% 0.00 in 1016 W/m2
14:34 79.8 °F 64.7 °F 29.66 in West 0.9 mph 5 mph 60.1% 0.00 in 942 W/m2
14:39 80.1 °F 64 °F 29.66 in West 0.3 mph 4 mph 57.9% 0.00 in 947 W/m2
14:44 80.4 °F 64.2 °F 29.66 in West 0.4 mph 4 mph 57.7% 0.00 in 962 W/m2
14:49 80.8 °F 64 °F 29.66 in WSW 1 mph 7 mph 56.6% 0.00 in 958 W/m2
14:54 80.9 °F 64.2 °F 29.66 in Calm   7 mph 56.8% 0.00 in 981 W/m2
14:59 80.8 °F 64.9 °F 29.66 in WSW 0.2 mph 7 mph 58.5% 0.00 in 988 W/m2
15:04 81 °F 65 °F 29.66 in WSW 0.6 mph 7 mph 58.3% 0.00 in 991 W/m2
15:09 81.2 °F 62.9 °F 29.66 in SW 0.3 mph 4 mph 53.7% 0.00 in 956 W/m2
15:14 81.4 °F 62.9 °F 29.66 in WSW 0.5 mph 5 mph 53.5% 0.00 in 940 W/m2
15:19 81.5 °F 63.4 °F 29.66 in WNW 1.6 mph 10 mph 54.2% 0.00 in 928 W/m2
15:24 81.7 °F 63.8 °F 29.65 in WSW 2.4 mph 10 mph 54.7% 0.00 in 893 W/m2
15:29 81.9 °F 62.8 °F 29.66 in WSW 1.3 mph 10 mph 52.4% 0.00 in 898 W/m2
15:34 82 °F 64 °F 29.66 in West 1.6 mph 11 mph 54.6% 0.00 in 895 W/m2
15:39 82.3 °F 63.5 °F 29.66 in WNW 3 mph 11 mph 52.9% 0.00 in 881 W/m2
15:44 82.7 °F 63.7 °F 29.66 in West 1 mph 11 mph 52.7% 0.00 in 881 W/m2
15:49 82.9 °F 63.3 °F 29.66 in WNW 1.9 mph 11 mph 51.7% 0.00 in 853 W/m2
15:54 83 °F 63.3 °F 29.65 in WNW 2.6 mph 11 mph 51.5% 0.00 in 833 W/m2
15:59 83.1 °F 63 °F 29.65 in West 2.5 mph 11 mph 50.9% 0.00 in 812 W/m2
16:00 83.1 °F 63.1 °F 29.65 in Calm   11 mph 51% 0.00 in 779 W/m2
16:09 82.8 °F 61.4 °F 29.65 in WSW 1.3 mph 5 mph 48.5% 0.00 in 752 W/m2
16:14 82.4 °F 61.4 °F 29.65 in SW 1.9 mph 6 mph 49% 0.00 in 740 W/m2
16:19 82.1 °F 60.9 °F 29.65 in WSW 1 mph 6 mph 48.7% 0.00 in 77 W/m2
16:24 81.8 °F 61.8 °F 29.65 in West 2.7 mph 9 mph 50.7% 0.00 in 91 W/m2
16:29 81.5 °F 61.7 °F 29.65 in West 1.8 mph 9 mph 51% 0.00 in 60 W/m2
16:34 81.4 °F 61.5 °F 29.65 in West 2.6 mph 10 mph 50.8% 0.00 in 72 W/m2
16:39 81.4 °F 61.7 °F 29.65 in WSW 1.7 mph 10 mph 51.4% 0.00 in 120 W/m2
16:44 81.2 °F 61.1 °F 29.65 in West 2.3 mph 10 mph 50.5% 0.00 in 98 W/m2
16:49 80.8 °F 61.5 °F 29.66 in West 3.6 mph 12 mph 51.8% 0.00 in 113 W/m2
16:54 80.4 °F 62.2 °F 29.66 in WNW 7.5 mph 19 mph 53.8% 0.00 in 172 W/m2
16:59 79.4 °F 62.1 °F 29.66 in WNW 5 mph 19 mph 55.5% 0.00 in 130 W/m2
17:04 78.2 °F 62.2 °F 29.66 in WNW 2.5 mph 19 mph 58.1% 0.00 in 134 W/m2
17:09 77.2 °F 62.3 °F 29.66 in WNW 6.9 mph 19 mph 60% 0.00 in 172 W/m2
17:14 76.5 °F 62.3 °F 29.67 in WNW 5.7 mph 19 mph 61.6% 0.00 in 158 W/m2
17:19 76.1 °F 62.5 °F 29.67 in WNW 4.1 mph 19 mph 62.8% 0.00 in 100 W/m2
17:24 75.6 °F 61.4 °F 29.67 in WNW 4.6 mph 19 mph 61.3% 0.00 in 121 W/m2
17:29 75 °F 61.4 °F 29.67 in WNW 2.7 mph 19 mph 62.7% 0.00 in 128 W/m2
17:34 74.5 °F 61.2 °F 29.66 in West 3.1 mph 19 mph 63.3% 0.00 in 98 W/m2
17:39 74 °F 61.2 °F 29.66 in West 1.7 mph 10 mph 64.3% 0.00 in 81 W/m2
17:44 73.7 °F 61.3 °F 29.66 in West 0.9 mph 10 mph 65.1% 0.00 in 121 W/m2
17:49 73.6 °F 61.8 °F 29.66 in WSW 1.5 mph 10 mph 66.5% 0.00 in 141 W/m2
17:54 73.9 °F 62.2 °F 29.66 in WNW 2.1 mph 10 mph 66.8% 0.00 in 105 W/m2
17:59 74.2 °F 62 °F 29.66 in West 3.4 mph 10 mph 65.7% 0.00 in 51 W/m2
18:04 74.5 °F 61.9 °F 29.66 in West 1.8 mph 10 mph 64.7% 0.00 in 39 W/m2
18:09 74.8 °F 62.2 °F 29.66 in West 2 mph 9 mph 64.9% 0.00 in 35 W/m2
18:14 74.8 °F 61.6 °F 29.65 in West 3.1 mph 10 mph 63.5% 0.00 in 33 W/m2
18:19 74.6 °F 61.3 °F 29.65 in WNW 2.2 mph 10 mph 63.3% 0.00 in 35 W/m2
18:24 74.5 °F 62 °F 29.65 in West 2.6 mph 10 mph 64.9% 0.00 in 35 W/m2
18:29 74.5 °F 61.7 °F 29.66 in West 2.8 mph 10 mph 64.3% 0.00 in 39 W/m2
18:34 74.5 °F 61.6 °F 29.66 in West 2.4 mph 10 mph 64.2% 0.00 in 39 W/m2
18:39 74.6 °F 61.4 °F 29.66 in West 2.9 mph 7 mph 63.6% 0.00 in 30 W/m2
18:44 74.7 °F 61.4 °F 29.66 in WSW 2.7 mph 9 mph 63.4% 0.00 in 30 W/m2
18:49 74.7 °F 61.3 °F 29.66 in West 1.9 mph 9 mph 63% 0.00 in 28 W/m2
18:54 74.7 °F 61.4 °F 29.66 in WNW 1.7 mph 9 mph 63.2% 0.00 in 28 W/m2
18:59 74.8 °F 61.4 °F 29.66 in WSW 1.7 mph 9 mph 63% 0.00 in 26 W/m2
19:04 74.7 °F 61 °F 29.66 in West 2.6 mph 9 mph 62.5% 0.00 in 26 W/m2
19:09 74.6 °F 61 °F 29.66 in West 3.4 mph 11 mph 62.5% 0.00 in 25 W/m2
19:14 74.5 °F 61.4 °F 29.66 in WNW 1 mph 11 mph 63.8% 0.00 in 25 W/m2
19:19 74.4 °F 61.8 °F 29.66 in West 2.1 mph 11 mph 64.8% 0.00 in 23 W/m2
19:24 74.2 °F 61.7 °F 29.66 in West 2.1 mph 11 mph 65% 0.00 in 23 W/m2
19:29 74.1 °F 61.6 °F 29.66 in WSW 0.5 mph 11 mph 65% 0.00 in 21 W/m2
19:34 74 °F 62 °F 29.66 in WSW 0.2 mph 11 mph 66% 0.00 in 19 W/m2
19:39 73.9 °F 61.7 °F 29.67 in West 1.6 mph 7 mph 65.8% 0.00 in 19 W/m2
19:44 73.7 °F 61.8 °F 29.67 in WSW 0.3 mph 7 mph 66.3% 0.00 in 18 W/m2
19:49 73.5 °F 61.6 °F 29.67 in West 1.7 mph 7 mph 66.2% 0.00 in 16 W/m2
19:54 73.3 °F 61.8 °F 29.67 in West 0.5 mph 7 mph 67.1% 0.00 in 14 W/m2
19:59 73.1 °F 62 °F 29.67 in West 0.5 mph 7 mph 68% 0.00 in 12 W/m2
20:09 72.6 °F 61.9 °F 29.68 in WSW 0.9 mph 5 mph 69% 0.00 in 7 W/m2
20:14 72.5 °F 61.8 °F 29.68 in Calm   5 mph 69.2% 0.00 in 0 W/m2
20:19 72.3 °F 62 °F 29.68 in Calm   5 mph 70% 0.00 in 0 W/m2
20:24 72.2 °F 61.8 °F 29.68 in Calm   5 mph 70% 0.00 in 0 W/m2
20:29 72 °F 61.9 °F 29.68 in Calm   5 mph 70.5% 0.00 in 0 W/m2
20:34 71.8 °F 61.9 °F 29.68 in Calm   5 mph 71% 0.00 in 0 W/m2
20:39 71.6 °F 61.8 °F 29.68 in Calm     71.2% 0.00 in 0 W/m2
20:44 71.4 °F 61.9 °F 29.68 in Calm     72% 0.00 in 0 W/m2
20:49 71.2 °F 61.8 °F 29.69 in Calm     72% 0.00 in 0 W/m2
20:54 71 °F 61.9 °F 29.69 in Calm     73% 0.00 in 0 W/m2
20:59 70.8 °F 62 °F 29.70 in WSW 0.1 mph 2 mph 73.8% 0.00 in 0 W/m2
21:04 70.5 °F 61.8 °F 29.70 in WSW 0.1 mph 3 mph 74% 0.00 in 0 W/m2
21:09 70.3 °F 61.8 °F 29.70 in WSW 0.2 mph 3 mph 74.5% 0.00 in 0 W/m2
21:14 70.1 °F 61.8 °F 29.70 in West 0.9 mph 5 mph 75.1% 0.00 in 0 W/m2
21:19 69.9 °F 62 °F 29.70 in West 0.2 mph 5 mph 76.1% 0.00 in 0 W/m2
21:24 69.7 °F 61.9 °F 29.70 in West 0.2 mph 5 mph 76.1% 0.00 in 0 W/m2
21:29 69.6 °F 61.7 °F 29.71 in West 0.1 mph 5 mph 76% 0.00 in 0 W/m2
21:34 69.5 °F 61.6 °F 29.71 in West 0.1 mph 5 mph 76.1% 0.00 in 0 W/m2
21:39 69.3 °F 61.5 °F 29.71 in WNW 1.5 mph 7 mph 76.3% 0.00 in 0 W/m2
21:44 69.1 °F 61.3 °F 29.71 in WNW 0.2 mph 7 mph 76% 0.00 in 0 W/m2
21:49 69 °F 61.1 °F 29.71 in WNW 0.2 mph 7 mph 76% 0.00 in 0 W/m2
21:54 68.8 °F 60.7 °F 29.71 in WNW 0.1 mph 7 mph 75.2% 0.00 in 0 W/m2
21:59 68.7 °F 60.5 °F 29.70 in Calm   7 mph 75% 0.00 in 0 W/m2
22:04 68.6 °F 60.7 °F 29.71 in WNW 0.3 mph 7 mph 76% 0.00 in 0 W/m2
22:09 68.4 °F 60.6 °F 29.71 in West 1.3 mph 7 mph 76% 0.00 in 0 W/m2
22:14 68.4 °F 60.5 °F 29.71 in West 0.4 mph 7 mph 76% 0.00 in 0 W/m2
22:19 68.3 °F 60.6 °F 29.71 in West 0.7 mph 7 mph 76.3% 0.00 in 0 W/m2
22:24 68.2 °F 60.4 °F 29.71 in West 0.2 mph 7 mph 76.1% 0.00 in 0 W/m2
22:29 68.1 °F 60.3 °F 29.71 in WNW 1.8 mph 8 mph 76% 0.00 in 0 W/m2
22:34 68 °F 60.1 °F 29.71 in WNW 2.5 mph 8 mph 76% 0.00 in 0 W/m2
22:39 67.8 °F 60 °F 29.71 in WNW 0.4 mph 7 mph 76% 0.00 in 0 W/m2
22:44 67.7 °F 60.1 °F 29.71 in WNW 0.3 mph 7 mph 76.9% 0.00 in 0 W/m2
22:49 67.5 °F 60.1 °F 29.71 in Calm   7 mph 77% 0.00 in 0 W/m2
22:54 67.4 °F 59.9 °F 29.72 in NNW 0.1 mph 7 mph 77% 0.00 in 0 W/m2
22:59 67.2 °F 59.8 °F 29.72 in Calm   7 mph 77% 0.00 in 0 W/m2
23:04 67.1 °F 59.8 °F 29.72 in NNW 0.1 mph 7 mph 77.4% 0.00 in 0 W/m2
23:09 66.9 °F 59.8 °F 29.72 in NNW 0.1 mph 3 mph 78% 0.00 in 0 W/m2
23:14 66.7 °F 59.7 °F 29.72 in Calm   3 mph 78% 0.00 in 0 W/m2
23:19 66.6 °F 59.6 °F 29.72 in Calm   3 mph 78.2% 0.00 in 0 W/m2
23:24 66.4 °F 59.7 °F 29.72 in WNW 0.3 mph 5 mph 79% 0.00 in 0 W/m2
23:29 66.3 °F 59.6 °F 29.72 in WNW 0.2 mph 5 mph 79% 0.00 in 0 W/m2
23:34 66.1 °F 59.5 °F 29.72 in WNW 0.2 mph 5 mph 79.2% 0.00 in 0 W/m2
23:39 65.9 °F 59.5 °F 29.72 in WNW 0.4 mph 5 mph 79.7% 0.00 in 0 W/m2
23:44 65.8 °F 59.4 °F 29.71 in Calm   5 mph 80% 0.00 in 0 W/m2
23:49 65.6 °F 59.2 °F 29.71 in Calm   5 mph 80% 0.00 in 0 W/m2
23:54 65.4 °F 59.2 °F 29.71 in Calm   5 mph 80.5% 0.00 in 0 W/m2
23:59 65.2 °F 59.2 °F 29.71 in Calm   5 mph 81% 0.00 in 0 W/m2
Hartford County Weather
Compliments of Weather Underground - 2 mb